createdAt,value
2019-01-29T00:04:08.375Z,15.90
2019-01-29T00:09:09.680Z,13.83
2019-01-29T00:14:10.962Z,14.93
2019-01-29T00:19:12.237Z,11.40
2019-01-29T00:24:13.885Z,13.57
2019-01-29T00:29:15.169Z,18.40
2019-01-29T00:34:16.462Z,16.93
2019-01-29T00:39:17.754Z,14.07
2019-01-29T00:44:19.368Z,12.70
2019-01-29T00:49:22.615Z,13.30
2019-01-29T00:54:23.726Z,12.60
2019-01-29T00:59:25.005Z,13.83
2019-01-29T01:04:26.283Z,17.27
2019-01-29T01:09:27.594Z,18.80
2019-01-29T01:14:29.234Z,17.97
2019-01-29T01:19:30.985Z,19.10
2019-01-29T01:24:32.265Z,15.03
2019-01-29T01:29:33.549Z,14.60
2019-01-29T01:34:34.834Z,15.77
2019-01-29T01:39:36.121Z,18.77
2019-01-29T01:44:37.405Z,14.80
2019-01-29T01:49:38.692Z,17.40
2019-01-29T01:54:39.993Z,16.97
2019-01-29T01:59:41.671Z,17.73
2019-01-29T02:04:42.954Z,19.17
2019-01-29T02:09:44.618Z,15.77
2019-01-29T02:14:45.937Z,20.20
2019-01-29T02:19:47.217Z,17.97
2019-01-29T02:24:48.803Z,17.53
2019-01-29T02:29:50.093Z,13.97
2019-01-29T02:34:51.366Z,16.07
2019-01-29T02:39:52.645Z,15.93
2019-01-29T02:44:54.317Z,16.67
2019-01-29T02:49:55.597Z,13.37
2019-01-29T02:54:56.879Z,16.50
2019-01-29T02:59:58.532Z,14.17
2019-01-29T03:04:59.815Z,15.53
2019-01-29T03:10:01.123Z,21.80
2019-01-29T03:15:05.407Z,17.13
2019-01-29T03:20:09.793Z,18.07
2019-01-29T03:25:11.605Z,16.37
2019-01-29T03:30:20.871Z,13.93
2019-01-29T03:35:22.560Z,13.87
2019-01-29T03:40:25.346Z,13.10
2019-01-29T03:45:26.647Z,15.97
2019-01-29T03:50:29.188Z,11.13
2019-01-29T03:55:30.595Z,13.67
2019-01-29T04:00:31.895Z,14.33
2019-01-29T04:05:33.190Z,12.37
2019-01-29T04:10:34.482Z,11.20
2019-01-29T04:15:36.062Z,10.83
2019-01-29T04:20:37.659Z,10.30
2019-01-29T04:25:38.945Z,10.00
2019-01-29T04:30:40.210Z,14.27
2019-01-29T04:35:41.492Z,12.30
2019-01-29T04:40:42.770Z,14.37
2019-01-29T04:45:44.042Z,13.43
2019-01-29T04:50:45.654Z,15.40
2019-01-29T04:55:46.923Z,13.63
2019-01-29T05:00:48.524Z,14.00
2019-01-29T05:05:49.800Z,11.57
2019-01-29T05:10:51.103Z,14.03
2019-01-29T05:15:52.377Z,10.97
2019-01-29T05:20:54.009Z,14.17
2019-01-29T05:25:55.281Z,10.93
2019-01-29T05:30:56.927Z,12.85
2019-01-29T05:35:58.207Z,11.17
2019-01-29T05:40:59.776Z,13.30
2019-01-29T05:46:01.348Z,14.07
2019-01-29T05:51:02.625Z,13.10
2019-01-29T05:56:04.494Z,11.90
2019-01-29T06:01:05.908Z,13.17
2019-01-29T06:06:07.446Z,11.07
2019-01-29T06:11:09.151Z,12.77
2019-01-29T06:16:10.426Z,11.23
2019-01-29T06:21:11.707Z,12.60
2019-01-29T06:26:13.335Z,10.57
2019-01-29T06:31:14.613Z,12.23
2019-01-29T06:36:15.889Z,13.75
2019-01-29T06:41:17.167Z,13.17
2019-01-29T06:46:18.441Z,12.03
2019-01-29T06:51:20.087Z,12.43
2019-01-29T06:56:21.393Z,12.97
2019-01-29T07:01:22.938Z,13.30
2019-01-29T07:06:24.210Z,13.60
2019-01-29T07:11:25.546Z,20.17
2019-01-29T07:16:37.761Z,19.73
2019-01-29T07:21:39.042Z,19.73
2019-01-29T07:26:40.318Z,15.20
2019-01-29T07:31:41.593Z,13.80
2019-01-29T07:36:43.205Z,13.43
2019-01-29T07:41:44.881Z,15.23
2019-01-29T07:46:46.167Z,14.20
2019-01-29T07:51:47.439Z,16.60
2019-01-29T07:56:49.067Z,14.70
2019-01-29T08:01:50.671Z,13.20
2019-01-29T08:06:51.969Z,20.60
2019-01-29T08:11:53.585Z,14.33
2019-01-29T08:16:54.868Z,15.03
2019-01-29T08:21:56.435Z,13.23
2019-01-29T08:26:57.717Z,16.77
2019-01-29T08:31:58.989Z,15.73
2019-01-29T08:37:00.267Z,11.83
2019-01-29T08:42:01.944Z,10.37
2019-01-29T08:47:03.322Z,11.60
2019-01-29T08:52:04.602Z,8.93
2019-01-29T08:57:05.878Z,11.10
2019-01-29T09:02:08.216Z,8.93
2019-01-29T09:07:09.662Z,8.73
2019-01-29T09:12:10.945Z,8.80
2019-01-29T09:17:12.232Z,10.63
2019-01-29T09:22:13.511Z,9.00
2019-01-29T09:27:14.790Z,9.60
2019-01-29T09:32:16.037Z,8.83
2019-01-29T09:37:17.612Z,9.27
2019-01-29T09:42:18.890Z,10.00
2019-01-29T09:47:20.177Z,8.87
2019-01-29T09:52:21.449Z,9.67
2019-01-29T09:57:22.722Z,9.90
2019-01-29T10:02:24.391Z,8.63
2019-01-29T10:07:25.693Z,7.37
2019-01-29T10:12:26.969Z,7.47
2019-01-29T10:17:28.655Z,8.17
2019-01-29T10:22:30.285Z,6.67
2019-01-29T10:27:31.675Z,7.77
2019-01-29T10:32:33.069Z,7.80
2019-01-29T10:37:34.704Z,6.83
2019-01-29T10:42:35.978Z,7.77
2019-01-29T10:47:37.707Z,8.63
2019-01-29T10:52:38.933Z,8.90
2019-01-29T10:57:40.211Z,7.23
2019-01-29T11:02:41.483Z,6.93
2019-01-29T11:07:42.789Z,6.80
2019-01-29T11:12:44.082Z,6.57
2019-01-29T11:17:45.417Z,7.87
2019-01-29T11:22:46.939Z,6.30
2019-01-29T11:27:48.217Z,8.07
2019-01-29T11:32:49.490Z,8.80
2019-01-29T11:37:50.769Z,7.50
2019-01-29T11:42:52.046Z,7.07
2019-01-29T11:47:53.330Z,8.30
2019-01-29T11:52:54.962Z,6.13
2019-01-29T11:57:56.609Z,8.20
2019-01-29T12:02:58.317Z,8.80
2019-01-29T12:07:59.622Z,8.67
2019-01-29T12:13:02.544Z,7.23
2019-01-29T12:18:04.421Z,9.87
2019-01-29T12:23:05.702Z,6.83
2019-01-29T12:28:07.321Z,6.70
2019-01-29T12:33:08.609Z,6.30
2019-01-29T12:38:09.883Z,7.07
2019-01-29T12:43:11.163Z,6.40
2019-01-29T12:48:12.449Z,10.10
2019-01-29T12:53:15.641Z,8.10
2019-01-29T12:58:17.287Z,5.93
2019-01-29T13:03:18.969Z,10.20
2019-01-29T13:08:20.381Z,10.50
2019-01-29T13:13:21.662Z,8.93
2019-01-29T13:18:22.937Z,7.77
2019-01-29T13:23:24.210Z,8.50
2019-01-29T13:28:25.517Z,9.10
2019-01-29T13:33:27.162Z,6.97
2019-01-29T13:38:28.447Z,7.90
2019-01-29T13:43:29.717Z,8.47
2019-01-29T13:48:30.989Z,8.73
2019-01-29T13:53:32.645Z,11.27
2019-01-29T13:58:34.224Z,10.70
2019-01-29T14:03:35.930Z,8.57
2019-01-29T14:08:37.577Z,8.27
2019-01-29T14:13:38.853Z,6.43
2019-01-29T14:18:40.916Z,8.93
2019-01-29T14:23:42.746Z,8.03
2019-01-29T14:28:44.038Z,10.20
2019-01-29T14:33:47.176Z,8.40
2019-01-29T14:39:18.193Z,8.93
2019-01-29T14:44:19.474Z,6.30
2019-01-29T14:49:20.753Z,9.53
2019-01-29T14:54:22.048Z,6.37
2019-01-29T14:59:23.329Z,11.30
2019-01-29T15:04:24.612Z,8.20
2019-01-29T15:09:26.370Z,8.17
2019-01-29T15:14:27.943Z,11.47
2019-01-29T15:19:29.222Z,8.47
2019-01-29T15:24:30.558Z,16.77
2019-01-29T15:29:31.777Z,11.03
2019-01-29T15:34:33.058Z,11.57
2019-01-29T15:39:34.337Z,8.50
2019-01-29T15:44:35.993Z,11.33
2019-01-29T15:49:37.284Z,8.70
2019-01-29T15:59:49.267Z,12.80
2019-01-29T16:04:50.576Z,9.63
2019-01-29T16:09:53.543Z,8.23
2019-01-29T16:14:54.953Z,10.17
2019-01-29T16:19:58.127Z,10.63
2019-01-29T16:25:00.254Z,11.77
2019-01-29T16:30:02.286Z,11.50
2019-01-29T16:35:06.178Z,25.00
2019-01-29T16:40:14.716Z,17.40
2019-01-29T16:45:27.724Z,14.30
2019-01-29T16:50:29.131Z,15.07
2019-01-29T16:55:31.753Z,12.10
2019-01-29T17:00:35.292Z,13.10
2019-01-29T17:05:36.775Z,11.40
2019-01-29T17:10:38.084Z,11.93
2019-01-29T17:15:39.365Z,10.87
2019-01-29T17:20:42.351Z,10.83
2019-01-29T17:25:43.625Z,12.90
2019-01-29T17:30:44.951Z,13.67
2019-01-29T17:35:46.338Z,20.43
2019-01-29T17:40:47.644Z,19.60
2019-01-29T17:45:50.692Z,20.40
2019-01-29T17:50:52.021Z,21.60
2019-01-29T17:55:53.875Z,15.63
2019-01-29T18:00:57.058Z,17.97
2019-01-29T18:05:58.694Z,19.30
2019-01-29T18:11:00.229Z,22.00
2019-01-29T18:16:01.849Z,28.57
2019-01-29T18:21:03.145Z,14.47
2019-01-29T18:26:04.862Z,33.17
2019-01-29T18:31:06.137Z,24.73
2019-01-29T18:36:07.785Z,29.93
2019-01-29T18:41:09.321Z,13.13
2019-01-29T18:46:10.706Z,14.97
2019-01-29T18:51:12.017Z,23.60
2019-01-29T18:56:13.274Z,18.40
2019-01-29T19:01:14.563Z,17.80
2019-01-29T19:06:15.961Z,19.03
2019-01-29T19:11:17.649Z,16.60
2019-01-29T19:16:20.307Z,19.27
2019-01-29T19:21:21.554Z,25.83
2019-01-29T19:26:22.855Z,22.83
2019-01-29T19:31:24.150Z,20.97
2019-01-29T19:36:25.438Z,15.80
2019-01-29T19:41:27.095Z,16.83
2019-01-29T19:46:28.374Z,15.03
2019-01-29T19:51:29.672Z,17.40
2019-01-29T19:56:31.277Z,23.23
2019-01-29T20:01:32.563Z,24.77
2019-01-29T20:06:33.839Z,14.37
2019-01-29T20:11:35.154Z,19.57
2019-01-29T20:16:36.435Z,17.43
2019-01-29T20:21:38.117Z,13.80
2019-01-29T20:26:39.349Z,14.47
2019-01-29T20:31:40.676Z,21.47
2019-01-29T20:36:42.370Z,16.53
2019-01-29T20:41:44.624Z,11.47
2019-01-29T20:46:45.890Z,19.63
2019-01-29T20:51:47.491Z,13.67
2019-01-29T20:56:49.091Z,16.10
2019-01-29T21:01:50.738Z,20.80
2019-01-29T21:06:52.011Z,14.23
2019-01-29T21:11:53.318Z,17.53
2019-01-29T21:16:54.594Z,17.27
2019-01-29T21:21:56.102Z,15.90
2019-01-29T21:26:57.335Z,16.03
2019-01-29T21:31:58.611Z,15.90
2019-01-29T21:36:59.892Z,13.57
2019-01-29T21:42:01.165Z,13.27
2019-01-29T21:47:02.443Z,14.50
2019-01-29T21:52:03.722Z,14.47
2019-01-29T21:57:04.999Z,9.93
2019-01-29T22:02:06.609Z,14.07
2019-01-29T22:07:07.953Z,12.07
2019-01-29T22:12:09.251Z,11.27
2019-01-29T22:17:10.526Z,10.77
2019-01-29T22:22:11.810Z,11.27
2019-01-29T22:27:13.462Z,12.40
2019-01-29T22:32:14.745Z,12.07
2019-01-29T22:37:16.431Z,10.00
2019-01-29T22:42:17.703Z,9.93
2019-01-29T22:47:19.355Z,6.77
2019-01-29T22:52:20.630Z,11.70
2019-01-29T22:57:21.906Z,15.87
2019-01-29T23:02:23.197Z,11.37
2019-01-29T23:07:24.473Z,14.67
2019-01-29T23:12:26.083Z,11.47
2019-01-29T23:17:27.357Z,11.93
2019-01-29T23:22:28.637Z,15.30
2019-01-29T23:27:29.910Z,12.47
2019-01-29T23:32:31.292Z,11.77
2019-01-29T23:37:32.603Z,15.77
2019-01-29T23:42:34.233Z,19.40
2019-01-29T23:47:35.501Z,12.83
2019-01-29T23:52:36.785Z,17.30
2019-01-29T23:57:38.067Z,13.97
